Time;durP1;ratioP1;P1;durP2;ratioP2;P2;SDS_P1;SDS_P2;PMS_P1;PMS_P2;Temp;Humidity;BMP_temperature;BMP_pressure;BME280_temperature;BME280_humidity;BME280_pressure;Samples;Min_cycle;Max_cycle;Signal;HPM_P1;HPM_P2
2023/01/18 00:01:53;;;;;;;2.05;1.35;;;5.90;43.70;;;;;;4918567;29;20188;-71
2023/01/18 00:04:18;;;;;;;2.00;1.33;;;5.90;43.80;;;;;;4933703;29;20254;-71
2023/01/18 00:06:44;;;;;;;4.10;2.43;;;6.00;43.20;;;;;;4935696;29;20749;-71
2023/01/18 00:09:11;;;;;;;3.67;2.40;;;6.00;43.50;;;;;;4918593;29;20172;-71
2023/01/18 00:11:36;;;;;;;1.88;1.15;;;6.10;43.40;;;;;;4935043;29;20175;-71
2023/01/18 00:14:02;;;;;;;2.63;1.60;;;5.90;43.70;;;;;;4946361;28;20215;-71
2023/01/18 00:16:29;;;;;;;2.40;1.53;;;5.70;44.50;;;;;;4945070;29;20633;-71
2023/01/18 00:18:58;;;;;;;5.00;2.60;;;5.60;45.60;;;;;;4943227;29;20263;-71
2023/01/18 00:21:25;;;;;;;2.00;1.20;;;5.70;44.70;;;;;;4930288;29;20192;-71
2023/01/18 00:23:51;;;;;;;6.20;1.92;;;6.00;43.90;;;;;;4932465;29;20299;-70
2023/01/18 00:26:17;;;;;;;1.90;1.20;;;6.30;42.70;;;;;;4935358;29;20188;-71
2023/01/18 00:28:43;;;;;;;2.75;1.90;;;6.20;43.40;;;;;;4942341;29;20266;-71
2023/01/18 00:31:15;;;;;;;2.03;1.38;;;6.30;42.70;;;;;;4937808;29;20255;-71
2023/01/18 00:33:45;;;;;;;2.75;2.10;;;6.40;42.40;;;;;;4935605;29;20258;-71
2023/01/18 00:36:11;;;;;;;2.28;1.52;;;6.50;42.30;;;;;;4940791;29;20236;-69
2023/01/18 00:38:37;;;;;;;2.80;1.80;;;6.70;41.00;;;;;;4933557;29;20192;-69
2023/01/18 00:41:03;;;;;;;1.77;1.20;;;6.80;41.00;;;;;;4934252;29;20191;-71
2023/01/18 00:43:37;;;;;;;3.40;1.97;;;6.60;41.00;;;;;;4934544;29;20262;-71
2023/01/18 00:46:04;;;;;;;1.80;1.20;;;6.60;41.30;;;;;;4942416;29;20223;-71
2023/01/18 00:48:30;;;;;;;2.10;1.30;;;6.40;42.10;;;;;;4952816;29;20181;-70
2023/01/18 00:50:55;;;;;;;2.10;1.43;;;6.50;41.90;;;;;;4923230;29;20254;-71
2023/01/18 00:53:21;;;;;;;1.80;1.10;;;6.20;42.30;;;;;;4943786;29;20688;-70
2023/01/18 00:55:48;;;;;;;1.93;1.23;;;6.00;43.00;;;;;;4937940;29;20246;-69
2023/01/18 00:58:13;;;;;;;1.80;1.10;;;6.20;43.10;;;;;;4946073;29;20191;-69
2023/01/18 01:00:40;;;;;;;1.83;1.10;;;6.40;41.80;;;;;;4939032;29;20266;-70
2023/01/18 01:03:07;;;;;;;2.20;1.45;;;6.40;41.80;;;;;;4940596;28;20265;-72
2023/01/18 01:08:17;;;;;;;3.35;2.30;;;6.50;41.70;;;;;;4942879;29;20729;-70
2023/01/18 01:10:45;;;;;;;2.80;1.37;;;6.60;41.00;;;;;;4932977;29;20284;-71
2023/01/18 01:26:51;;;;;;;2.10;1.30;;;6.50;41.60;;;;;;4934368;29;20267;-70
2023/01/18 01:29:17;;;;;;;1.80;1.20;;;6.50;41.30;;;;;;4938462;29;20207;-70
2023/01/18 01:31:43;;;;;;;1.80;1.10;;;6.50;40.60;;;;;;4940941;29;20411;-71
2023/01/18 01:34:08;;;;;;;1.80;1.13;;;6.60;40.50;;;;;;4940671;29;20191;-70
2023/01/18 01:36:34;;;;;;;2.47;1.50;;;6.50;40.80;;;;;;4938829;29;20180;-69
2023/01/18 01:39:00;;;;;;;3.20;2.30;;;6.60;40.20;;;;;;4932852;29;20207;-69
2023/01/18 01:41:33;;;;;;;3.37;1.87;;;6.50;40.60;;;;;;4940931;29;20416;-70
2023/01/18 01:44:03;;;;;;;1.80;1.20;;;6.30;41.60;;;;;;4940855;29;20211;-69
2023/01/18 01:46:47;;;;;;;1.75;1.08;;;6.40;41.50;;;;;;4940909;29;20255;-70
2023/01/18 01:49:32;;;;;;;2.10;1.40;;;6.50;40.40;;;;;;4931781;29;20181;-69
2023/01/18 01:52:07;;;;;;;2.42;1.58;;;6.50;41.10;;;;;;4940704;29;20192;-69
2023/01/18 01:54:37;;;;;;;1.80;1.10;;;6.30;41.90;;;;;;4941374;29;20832;-69
2023/01/18 01:57:14;;;;;;;2.20;1.60;;;6.10;42.90;;;;;;4941121;29;20186;-70
2023/01/18 01:59:44;;;;;;;2.10;1.45;;;6.20;42.50;;;;;;4931457;29;20180;-70
2023/01/18 02:02:10;;;;;;;1.83;1.15;;;6.40;42.10;;;;;;4939591;29;20219;-71
2023/01/18 02:04:37;;;;;;;3.45;1.55;;;6.40;42.00;;;;;;4940373;29;20207;-71
2023/01/18 02:07:03;;;;;;;1.80;1.20;;;6.40;42.60;;;;;;4942611;29;20675;-71
2023/01/18 02:09:28;;;;;;;2.63;1.57;;;6.30;42.00;;;;;;4944229;29;20195;-71
2023/01/18 02:11:55;;;;;;;1.77;1.10;;;6.20;42.80;;;;;;4943861;29;20502;-71
2023/01/18 02:14:25;;;;;;;5.00;2.58;;;6.20;42.80;;;;;;4940650;29;20624;-71
2023/01/18 02:17:18;;;;;;;2.30;1.73;;;6.20;43.00;;;;;;4940996;29;20169;-71
2023/01/18 02:20:23;;;;;;;7.68;3.97;;;6.20;42.70;;;;;;4938042;29;20733;-71
2023/01/18 02:23:29;;;;;;;1.90;1.25;;;6.20;42.30;;;;;;4935941;29;20834;-71
2023/01/18 02:26:05;;;;;;;2.45;1.92;;;6.30;42.00;;;;;;4894149;23;20236;-74
2023/01/18 02:28:40;;;;;;;3.30;2.47;;;6.40;41.40;;;;;;4914919;29;20180;-74
2023/01/18 02:31:19;;;;;;;1.95;1.35;;;6.40;41.20;;;;;;4919649;29;20211;-75
2023/01/18 02:33:50;;;;;;;2.28;1.52;;;6.40;41.80;;;;;;4911264;29;20271;-74
2023/01/18 02:36:29;;;;;;;2.42;1.67;;;6.50;41.80;;;;;;4919796;29;20204;-74
2023/01/18 02:39:00;;;;;;;1.80;1.10;;;6.40;41.50;;;;;;4918015;29;20215;-74
2023/01/18 02:47:26;;;;;;;2.72;1.73;;;6.50;41.20;;;;;;4926702;29;20227;-73
2023/01/18 02:49:52;;;;;;;2.35;1.65;;;6.60;40.90;;;;;;4931491;29;20255;-74
2023/01/18 02:52:40;;;;;;;2.40;1.67;;;6.60;40.80;;;;;;4930145;29;20293;-74
2023/01/18 02:55:25;;;;;;;1.88;1.25;;;6.60;40.30;;;;;;4919238;29;20193;-73
2023/01/18 02:57:55;;;;;;;2.03;1.30;;;6.50;40.40;;;;;;4906299;29;20250;-74
2023/01/18 03:00:22;;;;;;;3.42;1.65;;;6.40;40.70;;;;;;4905191;29;20544;-75
2023/01/18 03:02:50;;;;;;;1.90;1.40;;;6.60;39.90;;;;;;4918502;29;20197;-75
2023/01/18 03:05:16;;;;;;;1.90;1.23;;;6.60;40.80;;;;;;4908745;29;20190;-73
2023/01/18 03:08:08;;;;;;;2.20;1.55;;;6.60;40.80;;;;;;4917673;29;20177;-73
2023/01/18 03:10:37;;;;;;;3.08;1.95;;;6.50;41.20;;;;;;4917561;29;20165;-73
2023/01/18 03:13:18;;;;;;;1.92;1.20;;;6.40;42.40;;;;;;4917284;29;20650;-73
2023/01/18 03:15:52;;;;;;;2.65;1.60;;;6.40;42.10;;;;;;4911802;29;20209;-73
2023/01/18 03:18:59;;;;;;;1.90;1.30;;;6.50;41.00;;;;;;4914800;29;20601;-73
2023/01/18 03:21:34;;;;;;;1.90;1.30;;;6.60;40.40;;;;;;4917861;29;20176;-73
2023/01/18 03:24:05;;;;;;;1.80;1.10;;;6.70;40.20;;;;;;4916902;29;20283;-73
2023/01/18 03:26:41;;;;;;;1.80;1.20;;;6.60;40.10;;;;;;4907408;29;20695;-72
2023/01/18 03:35:06;;;;;;;1.90;1.30;;;6.50;40.90;;;;;;4916841;29;20322;-73
2023/01/18 03:37:39;;;;;;;1.90;1.30;;;6.70;40.60;;;;;;4913933;29;20556;-72
2023/01/18 03:40:14;;;;;;;4.20;2.13;;;6.50;41.20;;;;;;4916946;29;20188;-71
2023/01/18 03:43:03;;;;;;;2.45;1.83;;;6.50;42.10;;;;;;4916347;29;20204;-71
2023/01/18 03:45:31;;;;;;;3.33;2.13;;;6.60;41.50;;;;;;4910025;29;20288;-72
2023/01/18 03:47:57;;;;;;;2.10;1.40;;;6.60;41.40;;;;;;4914441;29;20276;-72
2023/01/18 03:50:31;;;;;;;1.70;1.10;;;6.40;41.50;;;;;;4916473;29;20220;-72
2023/01/18 03:53:00;;;;;;;2.25;1.60;;;6.10;42.50;;;;;;4916513;29;20627;-72
2023/01/18 03:55:45;;;;;;;2.78;1.92;;;5.70;43.40;;;;;;4916744;29;20205;-73
2023/01/18 03:58:15;;;;;;;1.90;1.25;;;5.60;44.00;;;;;;4908808;29;20215;-73
2023/01/18 04:00:41;;;;;;;1.70;1.10;;;5.50;44.70;;;;;;4897782;29;20220;-72
2023/01/18 04:03:06;;;;;;;2.00;1.30;;;4.80;48.00;;;;;;4897689;29;20265;-71
2023/01/18 04:05:33;;;;;;;1.83;1.20;;;4.90;48.30;;;;;;4915379;29;20216;-74
2023/01/18 04:07:59;;;;;;;1.80;1.20;;;4.50;50.00;;;;;;4915292;29;20730;-72
2023/01/18 04:10:25;;;;;;;1.90;1.30;;;4.50;51.50;;;;;;4916513;29;20181;-73
2023/01/18 04:12:51;;;;;;;6.47;4.80;;;4.90;49.70;;;;;;4916122;29;20184;-72
2023/01/18 04:15:16;;;;;;;2.07;1.40;;;4.90;49.40;;;;;;4912850;29;20527;-72
2023/01/18 04:17:42;;;;;;;1.83;1.20;;;4.90;48.80;;;;;;4916328;29;20267;-74
2023/01/18 04:20:08;;;;;;;2.03;1.37;;;4.70;50.40;;;;;;4916292;29;20599;-74
2023/01/18 04:22:34;;;;;;;2.00;1.30;;;5.10;49.30;;;;;;4914785;29;20192;-71
2023/01/18 04:24:59;;;;;;;1.93;1.33;;;5.50;45.70;;;;;;4914622;29;20264;-74
2023/01/18 04:27:25;;;;;;;1.80;1.10;;;5.70;45.70;;;;;;4915917;29;20689;-73
2023/01/18 04:29:51;;;;;;;1.80;1.20;;;5.50;45.70;;;;;;4916427;29;20227;-72
2023/01/18 04:32:16;;;;;;;2.10;1.20;;;5.50;45.70;;;;;;4916199;29;20176;-72
2023/01/18 04:34:42;;;;;;;2.20;1.47;;;5.10;47.50;;;;;;4915082;29;20240;-72
2023/01/18 04:37:07;;;;;;;3.00;1.70;;;4.70;49.70;;;;;;4906946;29;20201;-72
2023/01/18 04:39:33;;;;;;;2.10;1.37;;;5.10;48.50;;;;;;4914677;29;20272;-72
2023/01/18 04:41:59;;;;;;;2.10;1.53;;;4.90;47.60;;;;;;4915283;29;20192;-72
2023/01/18 04:44:24;;;;;;;2.10;1.40;;;4.30;50.90;;;;;;4915463;29;20275;-72
2023/01/18 04:46:50;;;;;;;4.67;2.50;;;4.20;52.30;;;;;;4915837;29;20689;-73
2023/01/18 04:49:16;;;;;;;2.00;1.40;;;4.40;52.20;;;;;;4914762;29;20224;-72
2023/01/18 04:51:43;;;;;;;2.00;1.38;;;4.80;50.30;;;;;;4924039;29;20180;-71
2023/01/18 04:54:10;;;;;;;2.00;1.30;;;4.80;49.50;;;;;;4920200;29;20203;-73
2023/01/18 04:56:36;;;;;;;2.58;1.70;;;4.80;49.70;;;;;;4913434;29;20280;-71
2023/01/18 04:59:01;;;;;;;1.90;1.27;;;5.10;49.00;;;;;;4922807;29;20236;-72
2023/01/18 05:01:28;;;;;;;1.90;1.20;;;5.00;49.00;;;;;;4919555;29;20189;-72
2023/01/18 05:03:54;;;;;;;3.00;2.08;;;5.20;48.60;;;;;;4925691;29;20658;-72
2023/01/18 05:06:21;;;;;;;4.55;3.50;;;5.40;47.20;;;;;;4917526;29;20295;-72
2023/01/18 05:08:47;;;;;;;2.10;1.33;;;5.60;46.10;;;;;;4915492;29;20169;-73
2023/01/18 05:11:18;;;;;;;1.98;1.33;;;5.40;47.10;;;;;;4913566;29;20569;-72
2023/01/18 05:13:44;;;;;;;2.50;1.67;;;5.20;47.20;;;;;;4915161;29;20267;-73
2023/01/18 05:16:19;;;;;;;1.88;1.20;;;4.20;53.10;;;;;;4915281;29;20209;-73
2023/01/18 05:18:45;;;;;;;2.28;1.58;;;3.80;55.60;;;;;;4915519;29;20187;-72
2023/01/18 05:21:11;;;;;;;2.72;1.92;;;3.80;57.40;;;;;;4914065;29;20203;-72
2023/01/18 05:23:38;;;;;;;1.90;1.10;;;3.90;56.40;;;;;;4906872;29;20561;-72
2023/01/18 05:26:12;;;;;;;1.90;1.20;;;3.60;58.20;;;;;;4915203;29;20212;-73
2023/01/18 05:28:38;;;;;;;1.85;1.20;;;3.40;60.20;;;;;;4915087;29;20176;-72
2023/01/18 05:31:03;;;;;;;1.80;1.20;;;3.70;59.30;;;;;;4914018;29;20199;-72
2023/01/18 05:33:29;;;;;;;2.30;1.60;;;3.70;58.10;;;;;;4910621;29;20192;-72
2023/01/18 05:35:54;;;;;;;1.80;1.10;;;3.90;56.90;;;;;;4915144;29;20670;-72
2023/01/18 05:38:22;;;;;;;1.80;1.10;;;3.90;56.10;;;;;;4915383;29;20184;-72
2023/01/18 05:40:51;;;;;;;1.80;1.15;;;3.80;57.20;;;;;;4915314;29;20283;-72
2023/01/18 05:43:20;;;;;;;1.80;1.10;;;4.00;55.70;;;;;;4913213;29;20268;-72
2023/01/18 05:45:46;;;;;;;1.77;1.10;;;3.60;56.70;;;;;;4908180;29;20662;-72
2023/01/18 05:48:11;;;;;;;1.70;1.00;;;3.30;60.00;;;;;;4915245;29;20192;-72
2023/01/18 05:50:44;;;;;;;2.00;1.30;;;3.50;58.30;;;;;;4914944;29;20738;-72
2023/01/18 05:53:11;;;;;;;1.90;1.20;;;3.80;56.80;;;;;;4914025;29;20169;-72
2023/01/18 05:55:36;;;;;;;6.25;2.08;;;4.00;54.70;;;;;;4906864;29;20208;-72
2023/01/18 05:58:02;;;;;;;1.80;1.13;;;4.00;54.50;;;;;;4914903;29;20264;-72
2023/01/18 06:00:28;;;;;;;1.80;1.10;;;4.00;54.40;;;;;;4914112;29;20555;-72
2023/01/18 06:02:54;;;;;;;1.90;1.27;;;4.00;53.40;;;;;;4913805;29;20691;-72
2023/01/18 06:05:22;;;;;;;1.80;1.20;;;3.90;54.30;;;;;;4914809;29;20190;-72
2023/01/18 06:07:48;;;;;;;1.80;1.10;;;3.90;54.50;;;;;;4914995;29;20193;-71
2023/01/18 06:10:14;;;;;;;2.20;1.57;;;4.00;54.90;;;;;;4915196;29;20181;-72
2023/01/18 06:12:40;;;;;;;2.08;1.45;;;4.20;53.10;;;;;;4911300;29;20528;-72
2023/01/18 06:15:07;;;;;;;1.80;1.10;;;4.40;52.00;;;;;;4914446;29;20189;-72
2023/01/18 06:17:33;;;;;;;1.92;1.35;;;4.20;53.80;;;;;;4918474;29;20199;-72
2023/01/18 06:19:59;;;;;;;1.80;1.23;;;4.20;53.20;;;;;;4918598;29;20918;-72
2023/01/18 06:22:24;;;;;;;1.93;1.30;;;4.30;53.80;;;;;;4918292;29;20424;-72
2023/01/18 06:24:50;;;;;;;1.80;1.20;;;4.80;52.10;;;;;;4913983;29;20220;-72
2023/01/18 06:27:16;;;;;;;1.90;1.20;;;5.20;50.00;;;;;;4917923;29;20339;-72
2023/01/18 06:29:41;;;;;;;2.40;1.50;;;5.10;49.90;;;;;;4918310;29;20180;-72
2023/01/18 06:32:07;;;;;;;1.83;1.17;;;4.40;52.20;;;;;;4918139;29;20176;-72
2023/01/18 06:34:32;;;;;;;2.03;1.50;;;4.00;54.70;;;;;;4914727;29;20204;-71
2023/01/18 06:36:58;;;;;;;2.23;1.60;;;3.60;56.60;;;;;;4917662;29;20212;-72
2023/01/18 06:39:24;;;;;;;1.80;1.20;;;3.20;61.80;;;;;;4916956;29;20275;-72
2023/01/18 06:41:50;;;;;;;2.47;1.90;;;3.30;60.20;;;;;;4917669;29;20417;-73
2023/01/18 06:44:16;;;;;;;1.90;1.20;;;3.40;60.00;;;;;;4917874;29;20460;-72
2023/01/18 06:46:45;;;;;;;3.43;1.80;;;3.50;59.40;;;;;;4917889;29;20271;-72
2023/01/18 06:49:11;;;;;;;1.98;1.35;;;3.30;60.10;;;;;;4916182;29;20207;-72
2023/01/18 06:51:37;;;;;;;2.08;1.40;;;3.90;58.20;;;;;;4917721;29;20299;-72
2023/01/18 06:54:03;;;;;;;3.00;1.85;;;4.00;56.00;;;;;;4917757;29;20191;-71
2023/01/18 06:56:29;;;;;;;2.17;1.43;;;3.80;56.10;;;;;;4917723;29;20196;-71
2023/01/18 06:58:57;;;;;;;1.80;1.20;;;3.60;58.60;;;;;;4917651;29;20487;-72
2023/01/18 07:01:24;;;;;;;2.30;1.40;;;3.60;59.50;;;;;;4908881;29;20186;-71
2023/01/18 07:03:49;;;;;;;1.88;1.20;;;3.90;57.30;;;;;;4916444;29;20219;-72
2023/01/18 07:06:15;;;;;;;1.80;1.13;;;3.50;59.10;;;;;;4915552;29;20215;-71
2023/01/18 07:08:41;;;;;;;3.10;2.23;;;3.40;60.60;;;;;;4927777;29;20266;-72
2023/01/18 07:11:08;;;;;;;1.90;1.30;;;3.70;58.60;;;;;;4919186;29;20545;-72
2023/01/18 07:13:34;;;;;;;1.80;1.10;;;3.40;59.30;;;;;;4926147;29;20188;-72
2023/01/18 07:16:00;;;;;;;1.80;1.10;;;3.40;59.40;;;;;;4929765;29;20235;-72
2023/01/18 07:18:28;;;;;;;1.80;1.20;;;3.50;58.70;;;;;;4934124;29;20187;-72
2023/01/18 07:21:08;;;;;;;1.90;1.30;;;3.60;57.40;;;;;;4915839;29;20647;-71
2023/01/18 07:23:37;;;;;;;1.90;1.25;;;3.40;59.30;;;;;;4916330;29;20196;-72
2023/01/18 07:26:06;;;;;;;1.80;1.13;;;3.80;58.10;;;;;;4917188;29;20245;-72
2023/01/18 07:28:32;;;;;;;1.77;1.10;;;4.70;52.80;;;;;;4917229;29;20197;-72
2023/01/18 07:30:58;;;;;;;1.80;1.20;;;4.20;53.60;;;;;;4917197;29;20169;-72
2023/01/18 07:33:23;;;;;;;1.80;1.20;;;3.90;55.00;;;;;;4907367;29;20682;-72
2023/01/18 07:35:53;;;;;;;1.90;1.20;;;3.90;55.50;;;;;;4917115;29;20200;-72
2023/01/18 07:38:19;;;;;;;1.80;1.10;;;3.90;56.50;;;;;;4917012;29;20313;-72
2023/01/18 07:40:46;;;;;;;2.75;1.60;;;3.90;53.90;;;;;;4916972;29;20655;-72
2023/01/18 07:43:12;;;;;;;1.80;1.10;;;3.60;57.10;;;;;;4914762;29;20581;-72
2023/01/18 07:45:38;;;;;;;2.38;1.60;;;3.90;55.40;;;;;;4916992;29;20212;-72
2023/01/18 07:48:04;;;;;;;1.80;1.17;;;4.20;54.20;;;;;;4916877;29;20324;-72
2023/01/18 07:50:32;;;;;;;1.88;1.20;;;4.20;53.30;;;;;;4916822;29;20189;-72
2023/01/18 07:53:03;;;;;;;1.80;1.20;;;4.20;53.90;;;;;;4914680;29;20914;-72
2023/01/18 07:55:32;;;;;;;1.90;1.23;;;4.00;54.20;;;;;;4915523;29;20211;-72
2023/01/18 07:57:58;;;;;;;1.90;1.20;;;4.10;52.10;;;;;;4916666;29;20184;-72
2023/01/18 08:00:24;;;;;;;1.80;1.10;;;3.90;55.20;;;;;;4916862;29;20176;-72
2023/01/18 08:02:51;;;;;;;1.90;1.30;;;4.40;53.60;;;;;;4916375;29;20187;-72
2023/01/18 08:05:19;;;;;;;1.80;1.20;;;4.50;51.70;;;;;;4906939;29;20303;-72
2023/01/18 08:07:46;;;;;;;1.90;1.30;;;4.10;53.00;;;;;;4915687;29;20259;-72
2023/01/18 08:10:13;;;;;;;1.80;1.20;;;3.70;55.20;;;;;;4916341;29;20191;-74
2023/01/18 08:12:40;;;;;;;1.88;1.25;;;3.00;61.30;;;;;;4916098;29;20194;-72
2023/01/18 08:15:06;;;;;;;1.80;1.38;;;3.10;62.50;;;;;;4915608;29;20196;-72
2023/01/18 08:17:33;;;;;;;1.88;1.23;;;3.60;60.40;;;;;;4921367;29;20284;-72
2023/01/18 08:19:59;;;;;;;1.70;1.10;;;3.70;57.10;;;;;;4935114;29;20185;-73
2023/01/18 08:22:25;;;;;;;1.73;1.10;;;3.50;57.90;;;;;;4935382;29;20182;-73
2023/01/18 08:24:50;;;;;;;1.77;1.10;;;3.30;60.30;;;;;;4916012;29;20212;-72
2023/01/18 08:27:16;;;;;;;1.90;1.30;;;4.00;56.70;;;;;;4913807;29;20219;-73
2023/01/18 08:29:41;;;;;;;1.90;1.30;;;4.30;53.70;;;;;;4908838;29;20176;-73
2023/01/18 08:32:07;;;;;;;1.80;1.13;;;4.00;54.90;;;;;;4916239;29;20232;-73
2023/01/18 08:34:33;;;;;;;1.80;1.20;;;4.10;54.70;;;;;;4914992;29;20812;-73
2023/01/18 08:36:58;;;;;;;1.80;1.20;;;4.30;53.80;;;;;;4916055;29;20287;-72
2023/01/18 08:39:24;;;;;;;2.43;1.80;;;4.00;53.10;;;;;;4905780;29;20208;-72
2023/01/18 08:41:49;;;;;;;1.70;1.10;;;3.70;55.60;;;;;;4915022;29;20621;-72
2023/01/18 08:44:16;;;;;;;2.60;1.60;;;4.00;53.60;;;;;;4915637;29;20209;-72
2023/01/18 08:46:41;;;;;;;1.80;1.17;;;3.90;53.80;;;;;;4915595;29;20196;-71
2023/01/18 08:49:07;;;;;;;1.70;1.10;;;3.60;56.00;;;;;;4915999;29;20173;-72
2023/01/18 08:51:33;;;;;;;3.17;1.70;;;3.80;54.80;;;;;;4906495;29;20527;-73
2023/01/18 08:53:59;;;;;;;1.90;1.30;;;3.60;55.10;;;;;;4915275;29;20421;-72
2023/01/18 08:56:26;;;;;;;1.77;1.10;;;3.70;54.30;;;;;;4915734;29;20201;-72
2023/01/18 08:58:51;;;;;;;1.75;1.10;;;3.40;56.10;;;;;;4915524;29;20200;-73
2023/01/18 09:01:17;;;;;;;1.77;1.20;;;3.90;55.00;;;;;;4913722;29;20818;-72
2023/01/18 09:03:43;;;;;;;1.90;1.30;;;4.10;53.10;;;;;;4908039;29;20288;-72
2023/01/18 09:06:09;;;;;;;2.42;1.65;;;3.80;53.00;;;;;;4906588;29;20202;-72
2023/01/18 09:08:36;;;;;;;2.28;1.67;;;3.80;53.30;;;;;;4915163;29;20185;-72
2023/01/18 09:11:03;;;;;;;1.80;1.10;;;3.60;54.60;;;;;;4915449;29;20189;-72
2023/01/18 09:13:30;;;;;;;2.33;1.60;;;4.00;52.60;;;;;;4915207;29;20553;-72
2023/01/18 09:16:01;;;;;;;1.90;1.33;;;4.30;51.90;;;;;;4908572;29;20213;-73
2023/01/18 09:18:27;;;;;;;1.80;1.15;;;4.30;50.40;;;;;;4913195;29;20185;-72
2023/01/18 09:20:55;;;;;;;2.97;2.00;;;4.20;52.00;;;;;;4915380;29;20219;-77
2023/01/18 09:23:21;;;;;;;2.10;1.50;;;4.00;52.40;;;;;;4921946;29;20569;-76
2023/01/18 09:25:47;;;;;;;1.88;1.20;;;4.00;53.80;;;;;;4919907;29;20228;-77
2023/01/18 09:28:15;;;;;;;1.90;1.20;;;4.10;52.50;;;;;;4907573;29;20522;-76
2023/01/18 09:30:41;;;;;;;1.95;1.30;;;4.30;51.50;;;;;;4915378;29;20181;-73
2023/01/18 09:33:07;;;;;;;2.00;1.33;;;4.10;50.70;;;;;;4915259;29;20535;-74
2023/01/18 09:35:33;;;;;;;1.80;1.10;;;4.00;51.10;;;;;;4915037;29;20436;-74
2023/01/18 09:37:58;;;;;;;1.80;1.10;;;4.00;51.00;;;;;;4910957;29;20596;-72
2023/01/18 09:40:35;;;;;;;1.80;1.20;;;3.90;52.70;;;;;;4922119;29;20443;-72
2023/01/18 09:43:01;;;;;;;1.77;1.08;;;4.70;50.10;;;;;;4929229;29;20668;-72
2023/01/18 09:45:29;;;;;;;1.80;1.10;;;4.00;51.40;;;;;;4934481;29;20204;-71
2023/01/18 09:48:03;;;;;;;1.90;1.30;;;3.60;52.70;;;;;;4926798;29;20188;-72
2023/01/18 09:50:31;;;;;;;1.85;1.17;;;3.60;53.80;;;;;;4927435;29;20183;-72
2023/01/18 09:53:51;;;;;;;1.80;1.20;;;3.20;55.00;;;;;;4932383;29;20183;-72
2023/01/18 09:56:31;;;;;;;2.40;1.50;;;3.60;53.60;;;;;;4871262;29;20206;-73
2023/01/18 09:59:19;;;;;;;1.80;1.20;;;3.70;51.40;;;;;;4914298;29;20192;-72
2023/01/18 10:01:47;;;;;;;1.80;1.10;;;3.60;52.80;;;;;;4920475;29;20196;-73
2023/01/18 10:04:35;;;;;;;1.80;1.10;;;4.00;52.60;;;;;;4917368;29;20208;-71
2023/01/18 10:07:22;;;;;;;1.80;1.10;;;4.10;51.30;;;;;;4958039;23;20711;-72
2023/01/18 10:09:52;;;;;;;2.00;1.30;;;4.20;49.60;;;;;;4957463;28;20195;-71
2023/01/18 10:12:27;;;;;;;1.70;1.10;;;3.80;51.60;;;;;;4956872;28;20169;-71
2023/01/18 10:14:55;;;;;;;1.80;1.10;;;4.20;49.90;;;;;;4956475;29;20174;-71
2023/01/18 10:17:28;;;;;;;1.80;1.10;;;4.30;48.70;;;;;;4945749;29;20208;-71
2023/01/18 10:19:54;;;;;;;1.90;1.20;;;4.50;46.70;;;;;;4953306;29;20266;-71
2023/01/18 10:22:33;;;;;;;1.80;1.00;;;4.80;46.80;;;;;;4955480;29;20271;-70
2023/01/18 10:25:01;;;;;;;1.80;1.10;;;5.20;45.40;;;;;;4955847;29;20773;-71
2023/01/18 10:28:05;;;;;;;1.80;1.10;;;5.60;42.90;;;;;;4954063;28;20606;-72
2023/01/18 10:30:46;;;;;;;1.90;1.20;;;5.50;41.90;;;;;;4931405;29;20195;-72
2023/01/18 10:33:24;;;;;;;2.10;1.30;;;5.60;41.80;;;;;;4956446;29;20191;-71
2023/01/18 10:35:53;;;;;;;1.80;1.10;;;5.20;42.90;;;;;;4956825;29;20182;-71
2023/01/18 10:38:23;;;;;;;1.70;1.00;;;5.40;42.40;;;;;;4951110;29;20287;-71
2023/01/18 10:40:58;;;;;;;1.80;1.10;;;4.80;42.40;;;;;;4954331;29;20187;-77
2023/01/18 10:43:25;;;;;;;1.80;1.05;;;5.10;43.90;;;;;;4955690;29;20194;-72
2023/01/18 10:45:54;;;;;;;1.90;1.20;;;5.50;42.00;;;;;;4953431;28;20184;-72
2023/01/18 10:48:28;;;;;;;1.90;1.20;;;5.50;41.90;;;;;;4950162;29;20270;-72
2023/01/18 10:51:02;;;;;;;1.92;1.70;;;5.80;41.10;;;;;;4953064;29;20187;-70
2023/01/18 10:53:34;;;;;;;1.80;1.08;;;6.10;39.20;;;;;;4954783;29;20182;-70
2023/01/18 10:56:16;;;;;;;2.95;1.70;;;5.80;38.90;;;;;;4955911;28;20194;-70
2023/01/18 10:58:56;;;;;;;1.77;1.10;;;5.60;40.80;;;;;;4955068;28;20233;-70
2023/01/18 11:01:26;;;;;;;1.80;1.10;;;6.00;38.60;;;;;;4954273;29;20250;-70
2023/01/18 11:03:55;;;;;;;1.90;1.20;;;6.10;39.10;;;;;;4951254;29;20223;-70
2023/01/18 11:06:23;;;;;;;1.80;1.10;;;5.90;38.50;;;;;;4955463;28;20473;-73
2023/01/18 11:08:49;;;;;;;1.80;1.10;;;4.90;40.80;;;;;;4955661;29;20692;-72
2023/01/18 11:14:24;;;;;;;2.00;1.30;;;4.50;43.30;;;;;;4947870;29;20239;-72
2023/01/18 11:17:01;;;;;;;1.80;1.10;;;5.40;41.50;;;;;;4953891;28;20222;-71
2023/01/18 11:19:27;;;;;;;1.85;1.17;;;5.80;40.90;;;;;;4955381;29;20179;-70
2023/01/18 11:21:53;;;;;;;1.90;1.20;;;5.80;40.60;;;;;;4948141;29;20238;-73
2023/01/18 11:24:25;;;;;;;2.10;1.50;;;4.60;41.20;;;;;;4950004;29;21030;-72
2023/01/18 11:27:02;;;;;;;1.80;1.10;;;4.40;43.90;;;;;;4955193;29;20214;-71
2023/01/18 11:29:38;;;;;;;1.90;1.20;;;4.80;41.90;;;;;;4955339;28;20171;-71
2023/01/18 11:32:08;;;;;;;2.80;1.67;;;5.10;41.50;;;;;;4952962;28;20191;-71
2023/01/18 11:34:40;;;;;;;1.70;1.00;;;5.30;40.80;;;;;;4933457;29;20179;-72
2023/01/18 11:37:35;;;;;;;1.90;1.20;;;5.10;42.30;;;;;;4954915;29;20206;-71
2023/01/18 11:40:25;;;;;;;1.80;1.10;;;5.30;41.50;;;;;;4955198;29;20178;-71
2023/01/18 11:42:57;;;;;;;1.80;1.10;;;4.80;41.80;;;;;;4948558;29;20187;-72
2023/01/18 11:45:31;;;;;;;1.70;1.10;;;4.80;43.80;;;;;;4950918;28;20214;-70
2023/01/18 11:48:07;;;;;;;1.70;1.00;;;4.60;43.50;;;;;;4950811;29;20269;-71
2023/01/18 11:50:43;;;;;;;1.80;1.10;;;4.40;44.70;;;;;;4955125;28;20258;-74
2023/01/18 11:53:14;;;;;;;1.80;1.10;;;4.10;47.00;;;;;;4947988;29;20179;-71
2023/01/18 11:55:46;;;;;;;1.75;1.10;;;4.20;46.40;;;;;;4947827;29;20222;-72
2023/01/18 11:58:41;;;;;;;1.70;1.10;;;3.60;49.10;;;;;;4936604;28;20710;-71
2023/01/18 12:01:12;;;;;;;3.53;1.40;;;3.70;50.10;;;;;;4857476;29;20326;-71
2023/01/18 12:03:49;;;;;;;2.90;1.33;;;4.10;50.00;;;;;;4854361;29;20218;-71
2023/01/18 12:06:26;;;;;;;1.80;1.10;;;4.30;47.50;;;;;;4854574;29;20198;-71
2023/01/18 12:09:25;;;;;;;1.70;1.10;;;4.10;46.70;;;;;;4857140;29;20218;-72
2023/01/18 12:11:51;;;;;;;1.70;1.00;;;4.10;45.90;;;;;;4857990;29;20280;-71
2023/01/18 12:14:19;;;;;;;1.80;1.10;;;4.20;47.20;;;;;;4856829;29;20190;-72
2023/01/18 12:16:53;;;;;;;2.80;1.52;;;4.20;45.50;;;;;;4860831;29;20289;-73
2023/01/18 12:19:25;;;;;;;1.80;1.15;;;4.20;45.80;;;;;;4858016;29;20198;-73
2023/01/18 12:22:23;;;;;;;1.80;1.05;;;4.60;44.90;;;;;;4857936;29;20246;-73
2023/01/18 12:25:09;;;;;;;1.77;1.00;;;4.80;43.00;;;;;;4848837;29;20237;-72
2023/01/18 12:28:01;;;;;;;1.80;1.10;;;4.70;43.20;;;;;;4858508;29;20592;-71
2023/01/18 12:30:47;;;;;;;1.80;1.10;;;4.60;41.60;;;;;;4867358;29;20704;-72
2023/01/18 12:33:24;;;;;;;1.77;1.00;;;4.50;45.00;;;;;;4864618;29;20678;-71
2023/01/18 12:36:08;;;;;;;1.70;1.00;;;4.70;43.90;;;;;;4854237;29;20200;-72
2023/01/18 12:38:39;;;;;;;2.53;1.52;;;4.80;43.20;;;;;;4945095;29;20190;-72
2023/01/18 12:41:41;;;;;;;1.92;1.30;;;4.70;43.10;;;;;;4955386;29;20218;-72
2023/01/18 12:44:20;;;;;;;2.80;1.50;;;4.60;43.20;;;;;;4866418;29;20698;-71
2023/01/18 12:47:14;;;;;;;2.13;1.52;;;4.80;43.60;;;;;;4869623;29;20216;-70
2023/01/18 12:49:45;;;;;;;1.90;1.20;;;4.30;45.00;;;;;;4874511;29;20222;-71
2023/01/18 12:52:15;;;;;;;1.70;1.10;;;5.10;44.00;;;;;;4879638;29;20195;-71
2023/01/18 12:54:45;;;;;;;1.80;1.10;;;5.40;42.40;;;;;;4883993;29;20740;-71
2023/01/18 12:57:13;;;;;;;1.70;1.10;;;4.60;44.70;;;;;;4878822;29;20213;-71
2023/01/18 13:00:00;;;;;;;1.80;1.10;;;4.60;44.90;;;;;;4870284;29;20238;-72
2023/01/18 13:02:31;;;;;;;1.83;1.17;;;4.50;44.80;;;;;;4873940;29;20200;-72
2023/01/18 13:05:06;;;;;;;1.75;1.10;;;5.40;42.90;;;;;;4880379;29;20205;-71
2023/01/18 13:07:38;;;;;;;1.75;1.08;;;5.20;42.30;;;;;;4875321;29;20226;-71
2023/01/18 13:10:12;;;;;;;1.80;1.10;;;5.80;41.60;;;;;;4875534;29;20169;-70
2023/01/18 13:12:38;;;;;;;1.80;1.20;;;6.10;39.90;;;;;;4869343;29;20192;-71
2023/01/18 13:15:21;;;;;;;2.10;1.30;;;5.40;41.40;;;;;;4889028;29;20249;-71
2023/01/18 13:18:06;;;;;;;1.70;1.10;;;4.80;43.40;;;;;;4874555;29;20325;-71
2023/01/18 13:21:10;;;;;;;1.70;1.00;;;5.30;44.60;;;;;;4928736;29;20253;-71
2023/01/18 13:24:03;;;;;;;1.80;1.20;;;5.70;41.90;;;;;;4946647;29;20662;-71
2023/01/18 13:26:33;;;;;;;1.80;1.10;;;5.50;43.00;;;;;;4953339;28;20231;-71
2023/01/18 13:29:15;;;;;;;3.58;1.92;;;5.00;43.20;;;;;;4919790;28;20242;-73
2023/01/18 13:31:41;;;;;;;1.80;1.20;;;4.90;43.80;;;;;;4945260;29;20171;-71
2023/01/18 13:34:23;;;;;;;1.80;1.10;;;5.00;43.90;;;;;;4943052;29;20191;-71
2023/01/18 13:36:49;;;;;;;1.90;1.23;;;5.40;42.80;;;;;;4947063;29;20209;-72
2023/01/18 13:39:17;;;;;;;1.70;1.10;;;5.70;41.60;;;;;;4948817;29;20187;-72
2023/01/18 13:42:06;;;;;;;1.70;1.00;;;5.80;41.90;;;;;;4953238;29;20186;-72
2023/01/18 13:44:42;;;;;;;1.75;1.10;;;5.40;41.60;;;;;;4947996;29;20234;-72
2023/01/18 13:47:46;;;;;;;1.80;1.10;;;4.60;43.10;;;;;;4953215;29;20195;-72
2023/01/18 13:50:30;;;;;;;1.80;1.13;;;4.70;43.80;;;;;;4943734;28;20210;-72